Nearby METAR Reports

   
KBNA - Nashville, TN
Updated: Aug 18 2018 8:53 pm
Mostly Cloudy  
Mostly Cloudy  
   Wind: SSW 3.5 mph
Wind: SSW 3.5 mph
Temperature: 75.2°F
Dew Point: 71.6°F
Humidity: 89%
Barometer: 29.95 inHg
Clouds: Mostly Cloudy
Visibility: 10 mi
Cloud details: Few Clouds 1219.2 m,
Mostly Cloudy 2438.4 m,
Mostly Cloudy 6096 m
KBNA 190153Z 20003KT 10SM FEW040 BKN080 BKN200 24/22 A2995 RMK AO2 SLP135 T02390222 $
KGZS - Lawrenceburg, TN
Updated: Aug 18 2018 9:15 pm
Mostly Cloudy  
Mostly Cloudy  
   Wind: Calm
Wind: Calm
Temperature: 75.2°F
Dew Point: 71.6°F
Humidity: 89%
Barometer: 29.96 inHg
Clouds: Mostly Cloudy
Visibility: 10 mi
Cloud details: Few Clouds 1219.2 m,
Mostly Cloudy 1493.5 m,
Mostly Cloudy 1676.4 m
KGZS 190215Z AUTO 00000KT 10SM FEW040 BKN049 BKN055 24/22 A2996 RMK A01
KOLV - Olive Branch, MS
Updated: Aug 18 2018 7:50 pm
NOT Current
Light Rain, Mostly Cloudy  
Light Rain, Mostly Cloudy  
   Wind: SSW 5.8 mph
Wind: SSW 5.8 mph
Temperature: 80.6°F
Heat Index: 86°F
Dew Point: 75.2°F
Humidity: 84%
Barometer: 29.92 inHg
Clouds: Mostly Cloudy
Visibility: 10 mi
Cloud details: Mostly Cloudy 1097.3 m,
Mostly Cloudy 7620 m
KOLV 190050Z 20005KT 10SM -RA BKN036 BKN250 27/24 A2992
KCHA - Chattanooga, TN
Updated: Aug 18 2018 8:53 pm
Mostly Cloudy  
Mostly Cloudy  
   Wind: South 3.5 mph
Wind: South 3.5 mph
Temperature: 78.8°F
Dew Point: 69.8°F
Humidity: 74%
Barometer: 29.96 inHg
Clouds: Mostly Cloudy
Visibility: 10 mi
Cloud details: Partly Cloudy 1066.8 m,
Partly Cloudy 2590.8 m,
Mostly Cloudy 3657.6 m,
Mostly Cloudy 7620 m
KCHA 190153Z 18003KT 10SM SCT035 SCT085 BKN120 BKN250 26/21 A2996 RMK AO2 SLP138 T02610211 $
KMEM - Memphis, TN
Updated: Aug 18 2018 8:54 pm
Mostly Cloudy  
Mostly Cloudy  
   Wind: SW 5.8 mph
Wind: SW 5.8 mph
Temperature: 82.4°F
Heat Index: 89.6°F
Dew Point: 75.2°F
Humidity: 79%
Barometer: 29.93 inHg
Clouds: Mostly Cloudy
Visibility: 10 mi
Cloud details: Partly Cloudy 1310.6 m,
Mostly Cloudy 2438.4 m,
Mostly Cloudy 7620 m
KMEM 190154Z 22005KT 10SM SCT043 BKN080 BKN250 28/24 A2993 RMK AO2 SLP132 T02780239
KTYS - Knoxville, TN
Updated: Aug 18 2018 9:01 pm
Nearby Thunderstorm, Mostly Cloudy  
Nearby Thunderstorm, Mostly Cloudy  
   Wind: NE 4.6 mph
Wind: NE 4.6 mph
Temperature: 73.4°F
Dew Point: 73.4°F
Humidity: 100%
Barometer: 29.97 inHg
Clouds: Mostly Cloudy
Visibility: 10 mi
Cloud details: Few Clouds 1402.1 m,
Mostly Cloudy 2286 m,
Mostly Cloudy 6096 m
KTYS 190201Z 05004KT 10SM VCTS FEW046CB BKN075 BKN200 23/23 A2997 RMK AO2 LTG DSNT SW RAE0154 FRQ LTGICCC VC SW TS VC SW MOV ESE P0000 T02280228

Script developed by  Saratoga-weather.org Adapted for the template by  Weerstation Leuven